Time;durP1;ratioP1;P1;durP2;ratioP2;P2;SDS_P1;SDS_P2;PMS_P1;PMS_P2;Temp;Humidity;BMP_temperature;BMP_pressure;BME280_temperature;BME280_humidity;BME280_pressure;Samples;Min_cycle;Max_cycle;Signal;HPM_P1;HPM_P2
2022/08/19 00:02:06;;;;;;;8.57;7.87;;;18.50;99.90;;;;;;5089720;28;20203;-46
2022/08/19 00:04:36;;;;;;;8.90;8.10;;;18.50;99.90;;;;;;5089767;28;20220;-46
2022/08/19 00:07:03;;;;;;;8.70;7.93;;;18.40;99.90;;;;;;5089331;28;20221;-51
2022/08/19 00:09:29;;;;;;;8.20;7.50;;;18.40;99.90;;;;;;5089204;28;20419;-46
2022/08/19 00:11:56;;;;;;;8.30;7.60;;;18.40;99.90;;;;;;5089517;28;20418;-49
2022/08/19 00:14:24;;;;;;;8.37;7.57;;;18.40;99.90;;;;;;5088404;28;20188;-48
2022/08/19 00:16:54;;;;;;;8.27;7.57;;;18.40;99.90;;;;;;5088818;28;20422;-50
2022/08/19 00:19:20;;;;;;;8.87;7.97;;;18.30;99.90;;;;;;5088540;28;20535;-46
2022/08/19 00:21:46;;;;;;;8.87;8.13;;;18.30;99.90;;;;;;5089231;28;20839;-46
2022/08/19 00:24:14;;;;;;;7.97;7.27;;;18.30;99.90;;;;;;5089480;28;20497;-44
2022/08/19 00:26:41;;;;;;;8.30;7.53;;;18.30;99.90;;;;;;5088850;28;20641;-44
2022/08/19 00:29:08;;;;;;;8.90;8.00;;;18.30;99.90;;;;;;5089180;28;20419;-48
2022/08/19 00:31:35;;;;;;;9.53;8.63;;;18.20;99.90;;;;;;5089313;28;20417;-45
2022/08/19 00:34:01;;;;;;;8.83;8.13;;;18.30;99.90;;;;;;5088779;28;20418;-44
2022/08/19 00:36:28;;;;;;;9.07;8.20;;;18.30;99.90;;;;;;5089166;28;20422;-49
2022/08/19 00:38:54;;;;;;;7.80;7.10;;;18.30;99.90;;;;;;5088337;28;20517;-50
2022/08/19 00:41:23;;;;;;;9.53;8.60;;;18.20;99.90;;;;;;5089046;28;20458;-46
2022/08/19 00:44:10;;;;;;;8.73;7.90;;;18.20;99.90;;;;;;5089318;28;20671;-49
2022/08/19 00:46:38;;;;;;;9.13;8.33;;;18.20;99.90;;;;;;5088398;28;20406;-46
2022/08/19 00:49:15;;;;;;;8.90;8.00;;;18.20;99.90;;;;;;5088374;28;20547;-45
2022/08/19 00:51:44;;;;;;;8.77;8.07;;;18.10;99.90;;;;;;5089120;28;20535;-45
2022/08/19 00:54:11;;;;;;;9.00;8.20;;;18.10;99.90;;;;;;5088557;28;20442;-46
2022/08/19 00:56:37;;;;;;;9.37;8.57;;;18.00;99.90;;;;;;5088471;28;20941;-46
2022/08/19 00:59:08;;;;;;;8.50;7.70;;;18.00;99.90;;;;;;5088116;28;20797;-49
2022/08/19 01:01:38;;;;;;;10.87;9.10;;;18.00;99.90;;;;;;5089016;28;20758;-44
2022/08/19 01:04:04;;;;;;;9.17;8.40;;;18.00;99.90;;;;;;5088658;28;20466;-45
2022/08/19 01:06:32;;;;;;;9.00;8.23;;;18.00;99.90;;;;;;5088769;28;20988;-45
2022/08/19 01:08:58;;;;;;;9.57;8.73;;;17.90;99.90;;;;;;5088741;28;20176;-45
2022/08/19 01:11:24;;;;;;;9.50;8.50;;;17.90;99.90;;;;;;5088428;28;20421;-48
2022/08/19 01:13:53;;;;;;;8.53;7.83;;;17.80;99.90;;;;;;5088732;28;20418;-44
2022/08/19 01:16:22;;;;;;;11.00;9.00;;;17.80;99.90;;;;;;5088763;28;20755;-47
2022/08/19 01:18:49;;;;;;;9.97;8.97;;;17.80;99.90;;;;;;5087485;28;20426;-46
2022/08/19 01:21:49;;;;;;;10.07;9.17;;;17.80;99.90;;;;;;5087319;28;20450;-44
2022/08/19 01:24:15;;;;;;;10.67;9.67;;;17.80;99.90;;;;;;5088425;28;20818;-48
2022/08/19 01:26:43;;;;;;;10.77;9.73;;;17.80;99.90;;;;;;5087897;28;20426;-44
2022/08/19 01:29:10;;;;;;;10.73;9.53;;;17.80;99.90;;;;;;5088083;28;20208;-46
2022/08/19 01:31:37;;;;;;;11.20;10.30;;;17.80;99.90;;;;;;5088719;28;20425;-50
2022/08/19 01:34:03;;;;;;;9.37;8.57;;;17.80;99.90;;;;;;5088138;28;20760;-46
2022/08/19 01:36:36;;;;;;;9.73;8.87;;;17.70;99.90;;;;;;5087960;28;20415;-48
2022/08/19 01:39:06;;;;;;;10.13;9.30;;;17.70;99.90;;;;;;5087982;28;20437;-46
2022/08/19 01:41:32;;;;;;;11.03;10.13;;;17.70;99.90;;;;;;5088485;28;20843;-45
2022/08/19 01:43:58;;;;;;;10.63;9.63;;;17.70;99.90;;;;;;5088128;28;20460;-45
2022/08/19 01:46:24;;;;;;;9.43;8.67;;;17.60;99.90;;;;;;5087940;28;20857;-44
2022/08/19 01:48:50;;;;;;;10.53;9.63;;;17.50;99.90;;;;;;5087832;28;20188;-44
2022/08/19 01:51:15;;;;;;;11.10;9.60;;;17.50;99.90;;;;;;5087955;28;20952;-44
2022/08/19 01:53:42;;;;;;;10.33;9.33;;;17.50;99.90;;;;;;5088119;28;20188;-49
2022/08/19 01:56:08;;;;;;;10.80;9.90;;;17.50;99.90;;;;;;5088143;28;20176;-44
2022/08/19 01:58:42;;;;;;;11.73;10.63;;;17.50;99.90;;;;;;5087356;28;20979;-44
2022/08/19 02:01:08;;;;;;;9.50;8.70;;;17.50;99.90;;;;;;5088046;28;20445;-50
2022/08/19 02:03:34;;;;;;;11.90;9.90;;;17.50;99.90;;;;;;5087710;28;20450;-46
2022/08/19 02:06:02;;;;;;;10.37;9.47;;;17.50;99.90;;;;;;5087897;28;20992;-44
2022/08/19 02:08:29;;;;;;;10.07;9.13;;;17.50;99.90;;;;;;5087428;28;20414;-44
2022/08/19 02:10:55;;;;;;;10.47;9.57;;;17.50;99.90;;;;;;5087862;28;20415;-45
2022/08/19 02:13:20;;;;;;;9.70;8.80;;;17.50;99.90;;;;;;5087992;28;20835;-47
2022/08/19 02:15:46;;;;;;;10.53;9.63;;;17.50;99.90;;;;;;5087783;28;20445;-46
2022/08/19 02:18:12;;;;;;;9.93;9.10;;;17.50;99.90;;;;;;5086948;28;20684;-47
2022/08/19 02:20:40;;;;;;;10.10;9.20;;;17.40;99.90;;;;;;5086666;28;20265;-45
2022/08/19 02:23:07;;;;;;;10.40;9.50;;;17.40;99.90;;;;;;5087866;28;20458;-45
2022/08/19 02:25:33;;;;;;;9.97;8.97;;;17.40;99.90;;;;;;5087718;28;20476;-46
2022/08/19 02:27:59;;;;;;;10.50;9.60;;;17.30;99.90;;;;;;5087183;28;20421;-46
2022/08/19 02:30:25;;;;;;;10.23;9.33;;;17.30;99.90;;;;;;5087573;28;20422;-44
2022/08/19 02:32:51;;;;;;;10.67;9.67;;;17.30;99.90;;;;;;5091250;28;20185;-48
2022/08/19 02:35:18;;;;;;;10.23;9.20;;;17.30;99.90;;;;;;5091556;28;20935;-48
2022/08/19 02:40:33;;;;;;;10.60;9.77;;;17.30;99.90;;;;;;5091495;28;20422;-44
2022/08/19 02:43:00;;;;;;;11.27;10.00;;;17.30;99.90;;;;;;5090193;28;20567;-45
2022/08/19 02:45:26;;;;;;;11.27;10.17;;;17.30;99.90;;;;;;5091420;28;20828;-45
2022/08/19 02:47:52;;;;;;;11.70;10.57;;;17.20;99.90;;;;;;5090611;28;20792;-46
2022/08/19 02:50:18;;;;;;;11.63;10.50;;;17.30;99.90;;;;;;5091275;28;20448;-45
2022/08/19 02:52:45;;;;;;;11.60;10.40;;;17.20;99.90;;;;;;5091106;28;20422;-44
2022/08/19 02:55:10;;;;;;;11.60;10.50;;;17.20;99.90;;;;;;5091095;28;20202;-46
2022/08/19 02:57:36;;;;;;;11.57;10.57;;;17.20;99.90;;;;;;5090004;28;20422;-45
2022/08/19 03:00:06;;;;;;;12.47;11.27;;;17.20;99.90;;;;;;5091244;28;20212;-45
2022/08/19 03:02:32;;;;;;;10.60;9.70;;;17.20;99.90;;;;;;5090946;28;20484;-43
2022/08/19 03:04:57;;;;;;;13.07;11.87;;;17.20;99.90;;;;;;5089457;28;20486;-45
2022/08/19 03:07:23;;;;;;;13.10;11.90;;;17.20;99.90;;;;;;5090241;28;20240;-48
2022/08/19 03:09:49;;;;;;;13.30;12.03;;;17.20;99.90;;;;;;5090997;28;20189;-48
2022/08/19 03:12:14;;;;;;;12.00;10.90;;;17.20;99.90;;;;;;5091011;28;20188;-45
2022/08/19 03:14:40;;;;;;;13.10;12.00;;;17.20;99.90;;;;;;5090993;28;20188;-45
2022/08/19 03:17:07;;;;;;;12.27;11.27;;;17.20;99.90;;;;;;5090127;28;20214;-44
2022/08/19 03:19:33;;;;;;;11.70;10.60;;;17.20;99.90;;;;;;5089900;28;20944;-45
2022/08/19 03:21:59;;;;;;;11.70;10.60;;;17.20;99.90;;;;;;5090669;28;20521;-46
2022/08/19 03:24:25;;;;;;;12.43;11.40;;;17.20;99.90;;;;;;5090459;28;20208;-46
2022/08/19 03:26:56;;;;;;;12.00;10.87;;;17.20;99.90;;;;;;5089728;28;20557;-47
2022/08/19 03:29:22;;;;;;;12.60;11.30;;;17.20;99.90;;;;;;5090404;28;20184;-49
2022/08/19 03:31:50;;;;;;;12.23;11.13;;;17.20;99.90;;;;;;5090765;28;20499;-44
2022/08/19 03:34:28;;;;;;;13.07;11.87;;;17.20;99.90;;;;;;5090554;28;20208;-45
2022/08/19 03:36:55;;;;;;;13.43;12.13;;;17.20;99.90;;;;;;5090347;28;20526;-47
2022/08/19 03:39:22;;;;;;;13.97;12.57;;;17.20;99.90;;;;;;5089809;28;20430;-46
2022/08/19 03:41:49;;;;;;;14.53;13.27;;;17.20;99.90;;;;;;5089072;28;20469;-44
2022/08/19 03:44:19;;;;;;;13.70;12.47;;;17.20;99.90;;;;;;5089305;28;20469;-47
2022/08/19 03:46:47;;;;;;;13.80;12.60;;;17.20;99.90;;;;;;5089705;28;20944;-46
2022/08/19 03:49:13;;;;;;;13.47;12.17;;;17.20;99.90;;;;;;5089922;28;20451;-47
2022/08/19 03:51:39;;;;;;;14.77;13.47;;;17.20;99.90;;;;;;5090135;28;20466;-45
2022/08/19 03:54:07;;;;;;;13.07;11.83;;;17.10;99.90;;;;;;5089695;28;20283;-47
2022/08/19 03:56:36;;;;;;;13.40;12.20;;;17.10;99.90;;;;;;5089875;28;20267;-49
2022/08/19 03:59:04;;;;;;;12.63;11.43;;;17.10;99.90;;;;;;5089891;28;20499;-44
2022/08/19 04:01:30;;;;;;;13.10;11.83;;;17.10;99.90;;;;;;5090137;28;20555;-47
2022/08/19 04:03:57;;;;;;;13.40;12.17;;;17.10;99.90;;;;;;5089478;28;20510;-47
2022/08/19 04:06:26;;;;;;;13.57;12.20;;;17.10;99.90;;;;;;5089945;28;20911;-46
2022/08/19 04:08:53;;;;;;;12.90;11.80;;;17.00;99.90;;;;;;5089089;28;20481;-46
2022/08/19 04:11:22;;;;;;;12.77;11.57;;;17.10;99.90;;;;;;5089834;28;20422;-48
2022/08/19 04:13:50;;;;;;;14.33;13.03;;;17.00;99.90;;;;;;5089872;28;20423;-44
2022/08/19 04:16:20;;;;;;;13.33;11.93;;;17.00;99.90;;;;;;5089852;28;20414;-45
2022/08/19 04:18:47;;;;;;;11.40;10.30;;;17.00;99.90;;;;;;5088835;28;20801;-46
2022/08/19 04:21:22;;;;;;;12.77;11.57;;;17.00;99.90;;;;;;5088320;28;20419;-47
2022/08/19 04:23:48;;;;;;;14.37;12.80;;;16.90;99.90;;;;;;5089508;28;21002;-45
2022/08/19 04:26:20;;;;;;;15.17;13.67;;;17.00;99.90;;;;;;5089575;28;20786;-48
2022/08/19 04:28:46;;;;;;;16.17;14.57;;;16.90;99.90;;;;;;5089012;28;20415;-47
2022/08/19 04:31:20;;;;;;;15.47;13.87;;;16.90;99.90;;;;;;5089275;28;20790;-47
2022/08/19 04:33:46;;;;;;;15.30;13.83;;;16.90;99.90;;;;;;5089429;28;20422;-47
2022/08/19 04:36:22;;;;;;;16.00;14.40;;;16.90;99.90;;;;;;5089053;28;20426;-44
2022/08/19 04:38:49;;;;;;;17.03;15.13;;;17.00;99.90;;;;;;5088860;28;20519;-48
2022/08/19 04:44:02;;;;;;;14.80;13.40;;;17.10;99.90;;;;;;5088698;28;20868;-47
2022/08/19 04:46:30;;;;;;;15.90;13.87;;;17.10;99.90;;;;;;5084190;28;20508;-44
2022/08/19 04:48:56;;;;;;;15.37;13.93;;;17.20;99.90;;;;;;5088451;28;20939;-44
2022/08/19 04:51:22;;;;;;;15.10;13.70;;;17.20;99.90;;;;;;5088704;28;20427;-44
2022/08/19 04:53:48;;;;;;;16.43;14.60;;;17.20;99.90;;;;;;5088896;28;20429;-46
2022/08/19 04:56:17;;;;;;;15.40;14.00;;;17.20;99.90;;;;;;5088572;28;20418;-47
2022/08/19 04:58:44;;;;;;;16.77;15.07;;;17.30;99.90;;;;;;5088283;28;20517;-46
2022/08/19 05:01:21;;;;;;;16.03;14.53;;;17.30;99.90;;;;;;5089051;28;20433;-47
2022/08/19 05:03:47;;;;;;;15.50;13.87;;;17.40;99.90;;;;;;5088716;28;20445;-44
2022/08/19 05:06:14;;;;;;;15.40;13.90;;;17.40;99.90;;;;;;5088761;28;20438;-44
2022/08/19 05:08:42;;;;;;;16.57;14.97;;;17.50;99.90;;;;;;5088612;28;20459;-49
2022/08/19 05:11:11;;;;;;;18.13;16.40;;;17.50;99.90;;;;;;5088235;28;20462;-50
2022/08/19 05:13:37;;;;;;;15.50;13.60;;;17.50;99.90;;;;;;5088781;28;20972;-45
2022/08/19 05:16:04;;;;;;;17.70;15.90;;;17.50;99.90;;;;;;5088728;28;20430;-44
2022/08/19 05:24:03;;;;;;;17.60;15.80;;;17.60;99.90;;;;;;5087188;28;20454;-48
2022/08/19 05:26:29;;;;;;;16.70;14.93;;;17.80;99.90;;;;;;5087202;28;20419;-47
2022/08/19 05:28:55;;;;;;;17.00;15.30;;;17.90;99.90;;;;;;5088051;28;20429;-43
2022/08/19 05:31:21;;;;;;;17.30;15.80;;;17.90;99.90;;;;;;5088263;28;20183;-44
2022/08/19 05:33:47;;;;;;;16.90;15.30;;;18.00;99.90;;;;;;5088505;28;20457;-43
2022/08/19 05:36:14;;;;;;;18.73;16.90;;;18.10;99.90;;;;;;5088180;28;20780;-46
2022/08/19 05:38:39;;;;;;;16.87;15.23;;;18.10;99.90;;;;;;5087555;28;20645;-45
2022/08/19 05:41:10;;;;;;;17.37;15.60;;;18.10;99.90;;;;;;5088171;28;20434;-47
2022/08/19 05:43:37;;;;;;;17.47;15.67;;;18.20;99.90;;;;;;5088110;28;20291;-44
2022/08/19 05:46:05;;;;;;;19.00;16.97;;;18.30;99.90;;;;;;5079543;28;20506;-45
2022/08/19 05:48:32;;;;;;;19.63;17.57;;;18.40;99.90;;;;;;5086609;28;20480;-49
2022/08/19 05:50:59;;;;;;;17.80;16.00;;;18.50;99.90;;;;;;5088116;28;20418;-47
2022/08/19 05:53:25;;;;;;;17.33;15.63;;;18.60;99.90;;;;;;5088073;28;20426;-44
2022/08/19 05:55:51;;;;;;;17.17;15.57;;;18.80;99.90;;;;;;5088105;28;20515;-44
2022/08/19 05:58:17;;;;;;;16.77;15.10;;;19.00;99.90;;;;;;5087534;28;20483;-45
2022/08/19 06:00:44;;;;;;;18.03;16.03;;;19.20;99.90;;;;;;5088395;28;20192;-45
2022/08/19 06:03:10;;;;;;;15.37;13.83;;;19.40;99.90;;;;;;5087607;28;20669;-45
2022/08/19 06:05:36;;;;;;;15.77;14.17;;;19.60;99.90;;;;;;5088579;28;20449;-44
2022/08/19 06:08:01;;;;;;;15.70;14.17;;;19.80;99.90;;;;;;5091005;28;20192;-46
2022/08/19 06:10:27;;;;;;;16.67;14.90;;;19.90;99.90;;;;;;5092252;28;20188;-46
2022/08/19 06:12:53;;;;;;;17.33;15.60;;;20.00;99.90;;;;;;5089105;28;21002;-48
2022/08/19 06:15:19;;;;;;;18.83;14.10;;;20.00;99.90;;;;;;5093222;28;20298;-46
2022/08/19 06:17:45;;;;;;;14.40;12.70;;;19.90;99.90;;;;;;5082831;28;20432;-44
2022/08/19 06:20:13;;;;;;;16.17;13.60;;;19.90;99.90;;;;;;5088750;28;20920;-45
2022/08/19 06:22:44;;;;;;;15.10;13.47;;;20.10;99.90;;;;;;5091230;28;20196;-47
2022/08/19 06:25:11;;;;;;;15.70;13.90;;;20.10;99.90;;;;;;5091464;28;20462;-44
2022/08/19 06:27:37;;;;;;;18.37;14.30;;;20.30;99.90;;;;;;5091061;28;20422;-46
2022/08/19 06:30:04;;;;;;;13.50;12.20;;;20.40;99.90;;;;;;5087493;28;20430;-46
2022/08/19 06:32:30;;;;;;;16.53;14.83;;;20.60;99.90;;;;;;5091701;28;20430;-46
2022/08/19 06:34:56;;;;;;;16.57;14.13;;;20.80;99.90;;;;;;5091550;28;20457;-46
2022/08/19 06:37:22;;;;;;;14.33;12.33;;;21.00;99.90;;;;;;5091174;28;20458;-46
2022/08/19 06:39:48;;;;;;;15.93;14.30;;;21.20;99.90;;;;;;5091140;28;20188;-44
2022/08/19 06:42:18;;;;;;;13.93;12.73;;;21.30;99.90;;;;;;5089887;28;20237;-45
2022/08/19 06:44:46;;;;;;;15.70;14.23;;;21.40;99.90;;;;;;5077516;28;20496;-47
2022/08/19 06:47:15;;;;;;;19.20;17.20;;;21.60;99.90;;;;;;5089117;28;20824;-47
2022/08/19 06:49:41;;;;;;;18.03;15.90;;;21.60;99.90;;;;;;5085430;28;20446;-44
2022/08/19 06:52:08;;;;;;;17.30;15.60;;;21.60;99.90;;;;;;5090859;28;20421;-43
2022/08/19 06:54:34;;;;;;;21.13;18.67;;;21.70;99.90;;;;;;5091420;28;20506;-48
2022/08/19 06:57:03;;;;;;;21.67;19.57;;;21.70;99.90;;;;;;5090004;28;20509;-50
2022/08/19 06:59:32;;;;;;;20.70;18.60;;;21.70;99.90;;;;;;5090709;28;20242;-47
2022/08/19 07:01:59;;;;;;;16.80;15.10;;;21.80;99.90;;;;;;5090930;28;20505;-45
2022/08/19 07:04:30;;;;;;;22.30;19.87;;;21.90;99.90;;;;;;5091036;28;20557;-44
2022/08/19 07:06:59;;;;;;;20.13;17.37;;;22.10;99.90;;;;;;5089988;28;20415;-44
2022/08/19 07:09:25;;;;;;;22.47;19.03;;;22.20;99.90;;;;;;5091058;28;20419;-46
2022/08/19 07:11:52;;;;;;;21.33;19.10;;;22.30;99.90;;;;;;5090180;28;20438;-49
2022/08/19 07:14:21;;;;;;;20.63;18.70;;;22.30;99.90;;;;;;5090478;28;20250;-46
2022/08/19 07:16:49;;;;;;;20.87;18.70;;;22.30;99.90;;;;;;5088159;28;21014;-43
2022/08/19 07:19:16;;;;;;;22.00;19.80;;;22.20;99.90;;;;;;5089854;28;20990;-45
2022/08/19 07:21:42;;;;;;;18.93;17.07;;;22.20;99.90;;;;;;5089112;28;20430;-45
2022/08/19 07:24:09;;;;;;;19.17;16.20;;;22.20;99.90;;;;;;5090391;28;20507;-46
2022/08/19 07:26:39;;;;;;;21.10;18.90;;;22.40;99.90;;;;;;5090010;28;20422;-48
2022/08/19 07:29:06;;;;;;;19.23;17.23;;;22.40;99.90;;;;;;5090277;28;20514;-45
2022/08/19 07:31:36;;;;;;;18.20;15.60;;;22.40;99.90;;;;;;5090442;28;20424;-44
2022/08/19 07:34:10;;;;;;;19.07;17.17;;;22.40;99.90;;;;;;5090469;28;20943;-48
2022/08/19 07:36:38;;;;;;;17.50;15.83;;;22.40;99.90;;;;;;5089950;28;20418;-47
2022/08/19 07:39:11;;;;;;;18.23;16.40;;;22.40;99.90;;;;;;5088822;28;20430;-46
2022/08/19 07:41:38;;;;;;;18.23;16.30;;;22.40;99.90;;;;;;5088109;28;20925;-43
2022/08/19 07:44:07;;;;;;;16.87;15.17;;;22.40;99.90;;;;;;5087534;28;20475;-46
2022/08/19 07:46:39;;;;;;;15.90;14.37;;;22.40;99.90;;;;;;5086992;28;20415;-46
2022/08/19 07:49:07;;;;;;;17.00;15.40;;;22.50;99.90;;;;;;5088906;28;20454;-47
2022/08/19 07:51:33;;;;;;;16.20;14.60;;;22.60;99.90;;;;;;5088934;28;20413;-47
2022/08/19 07:53:59;;;;;;;20.60;18.50;;;22.60;99.90;;;;;;5089767;28;20417;-45
2022/08/19 07:56:26;;;;;;;19.93;18.13;;;22.60;99.90;;;;;;5089622;28;20900;-49
2022/08/19 07:58:52;;;;;;;20.73;18.27;;;22.50;99.90;;;;;;5087555;28;20430;-48
2022/08/19 08:01:23;;;;;;;17.57;15.87;;;22.50;99.90;;;;;;5089636;28;20421;-46
2022/08/19 08:09:27;;;;;;;20.47;16.87;;;22.30;99.90;;;;;;5089923;28;20426;-46
2022/08/19 08:12:00;;;;;;;20.60;18.40;;;22.30;99.90;;;;;;5089479;28;20451;-45
2022/08/19 08:14:34;;;;;;;20.80;18.60;;;22.40;99.90;;;;;;5089383;28;20431;-44
2022/08/19 08:17:01;;;;;;;19.97;16.57;;;22.40;99.90;;;;;;5088738;28;20563;-46
2022/08/19 08:19:28;;;;;;;18.07;15.93;;;22.40;99.90;;;;;;5088158;28;20422;-47
2022/08/19 08:21:57;;;;;;;20.20;17.43;;;22.50;99.90;;;;;;5088351;28;20437;-46
2022/08/19 08:24:23;;;;;;;22.40;20.20;;;22.50;99.90;;;;;;5089088;28;20461;-51
2022/08/19 08:26:49;;;;;;;20.97;18.83;;;22.60;99.90;;;;;;5087323;28;20418;-47
2022/08/19 08:29:15;;;;;;;22.77;20.50;;;22.60;99.90;;;;;;5088318;28;20462;-46
2022/08/19 08:31:42;;;;;;;21.60;19.37;;;22.60;99.90;;;;;;5089225;28;20678;-48
2022/08/19 08:34:09;;;;;;;22.10;19.73;;;22.70;99.90;;;;;;5089548;28;20478;-47
2022/08/19 08:36:41;;;;;;;21.97;19.80;;;22.70;99.90;;;;;;5088747;28;20423;-46
2022/08/19 08:39:15;;;;;;;21.50;19.50;;;22.60;99.90;;;;;;5089135;28;20764;-46
2022/08/19 08:41:53;;;;;;;17.13;15.43;;;22.70;99.90;;;;;;5089143;28;20948;-46
2022/08/19 08:44:45;;;;;;;21.87;19.60;;;22.70;99.90;;;;;;5089140;28;20454;-44
2022/08/19 08:47:16;;;;;;;20.60;17.57;;;22.80;99.90;;;;;;5088369;28;20458;-46
2022/08/19 08:49:50;;;;;;;23.53;21.17;;;22.90;99.90;;;;;;5088796;28;20449;-44
2022/08/19 08:52:29;;;;;;;23.93;21.47;;;23.00;99.90;;;;;;5088903;28;20456;-48
2022/08/19 08:54:58;;;;;;;22.70;20.40;;;23.00;99.90;;;;;;5089004;28;20465;-46
2022/08/19 08:57:31;;;;;;;21.37;18.90;;;23.10;99.90;;;;;;5088065;28;20423;-43
2022/08/19 09:00:00;;;;;;;21.63;19.53;;;23.20;99.90;;;;;;5088955;28;20426;-51
2022/08/19 09:02:26;;;;;;;28.50;23.10;;;23.30;99.90;;;;;;5088359;28;20430;-48
2022/08/19 09:04:53;;;;;;;22.93;20.83;;;23.40;99.90;;;;;;5088580;28;20462;-48
2022/08/19 09:07:55;;;;;;;25.03;22.33;;;23.50;99.90;;;;;;5088308;28;20444;-45
2022/08/19 09:10:42;;;;;;;22.80;20.70;;;23.60;99.90;;;;;;5072609;28;20421;-46
2022/08/19 09:13:38;;;;;;;26.33;23.70;;;23.70;99.90;;;;;;5088539;28;20426;-49
2022/08/19 09:16:15;;;;;;;23.13;20.80;;;23.80;99.90;;;;;;5088170;28;20426;-47
2022/08/19 09:18:57;;;;;;;22.90;20.60;;;23.90;99.90;;;;;;5086567;28;20483;-45
2022/08/19 09:21:25;;;;;;;24.57;22.23;;;24.00;99.90;;;;;;5087047;28;20433;-49
2022/08/19 09:23:51;;;;;;;27.97;25.10;;;24.10;99.90;;;;;;5088448;28;20956;-48
2022/08/19 09:26:20;;;;;;;26.43;23.93;;;24.30;99.90;;;;;;5088356;28;20419;-46
2022/08/19 09:28:48;;;;;;;35.07;31.67;;;24.40;99.90;;;;;;5087562;28;20418;-46
2022/08/19 09:31:17;;;;;;;29.73;26.70;;;24.50;99.90;;;;;;5088288;28;20423;-48
2022/08/19 09:33:43;;;;;;;33.70;30.30;;;24.40;99.90;;;;;;5088220;28;20434;-46
2022/08/19 09:36:12;;;;;;;27.83;25.20;;;24.30;99.90;;;;;;5088725;28;20429;-45
2022/08/19 09:38:41;;;;;;;29.43;26.23;;;24.30;99.90;;;;;;5087845;28;20426;-46
2022/08/19 09:41:08;;;;;;;27.30;24.57;;;24.40;99.90;;;;;;5087343;28;20426;-45
2022/08/19 09:43:36;;;;;;;29.13;26.33;;;24.60;99.90;;;;;;5088158;28;21023;-44
2022/08/19 09:46:06;;;;;;;26.60;23.80;;;24.70;99.90;;;;;;5088166;28;20418;-49
2022/08/19 09:48:38;;;;;;;26.27;23.77;;;24.80;99.90;;;;;;5087570;28;20480;-47
2022/08/19 09:51:15;;;;;;;28.30;25.40;;;24.80;99.90;;;;;;5088157;28;20425;-47
2022/08/19 09:53:44;;;;;;;25.93;23.47;;;24.90;99.90;;;;;;5088145;28;20430;-47
2022/08/19 09:56:10;;;;;;;26.37;23.97;;;25.00;99.90;;;;;;5088190;28;20723;-47
2022/08/19 09:58:37;;;;;;;28.77;26.00;;;25.00;99.90;;;;;;5087151;28;20513;-46
2022/08/19 10:01:05;;;;;;;26.30;23.70;;;25.00;99.90;;;;;;5087107;28;20418;-46
2022/08/19 10:03:32;;;;;;;26.77;24.17;;;24.90;99.90;;;;;;5088162;28;20816;-44
2022/08/19 10:06:00;;;;;;;23.47;21.47;;;24.90;99.90;;;;;;5088034;28;20453;-46
2022/08/19 10:08:28;;;;;;;22.17;19.97;;;24.90;99.90;;;;;;5086267;28;20426;-47
2022/08/19 10:10:55;;;;;;;20.33;18.40;;;24.90;99.90;;;;;;5087710;28;20453;-45
2022/08/19 10:13:25;;;;;;;20.33;18.30;;;25.10;99.90;;;;;;5087990;28;20445;-45
2022/08/19 10:15:56;;;;;;;24.43;22.10;;;25.20;99.90;;;;;;5087838;28;20429;-44
2022/08/19 10:18:24;;;;;;;20.60;18.70;;;25.20;99.90;;;;;;5087446;28;20430;-44
2022/08/19 10:20:52;;;;;;;20.53;18.47;;;25.20;99.90;;;;;;5086248;28;20512;-46
2022/08/19 10:23:19;;;;;;;21.43;19.30;;;25.30;99.90;;;;;;5087868;28;20516;-49
2022/08/19 10:25:45;;;;;;;18.57;16.87;;;25.30;99.90;;;;;;5087535;28;20887;-46
2022/08/19 10:28:11;;;;;;;17.83;16.33;;;25.40;99.90;;;;;;5087362;28;20418;-44
2022/08/19 10:30:38;;;;;;;16.27;14.87;;;25.40;99.90;;;;;;5087957;28;20434;-49
2022/08/19 10:33:05;;;;;;;16.90;15.30;;;25.50;99.90;;;;;;5087889;28;20914;-45
2022/08/19 10:35:30;;;;;;;16.50;14.87;;;25.70;99.90;;;;;;5088046;28;20475;-44
2022/08/19 10:38:01;;;;;;;20.00;18.00;;;25.70;99.90;;;;;;5087403;28;20426;-44
2022/08/19 10:40:28;;;;;;;19.30;17.43;;;25.80;99.90;;;;;;5086418;28;20814;-44
2022/08/19 10:42:55;;;;;;;16.97;15.47;;;25.80;99.90;;;;;;5087871;28;20426;-46
2022/08/19 10:45:25;;;;;;;19.77;17.97;;;25.90;99.90;;;;;;5087933;28;20466;-45
2022/08/19 10:47:53;;;;;;;19.53;17.83;;;25.90;99.90;;;;;;5087063;28;20422;-46
2022/08/19 10:53:10;;;;;;;17.30;15.90;;;25.90;99.90;;;;;;5090204;28;20464;-48
2022/08/19 10:58:23;;;;;;;17.67;16.10;;;25.90;99.90;;;;;;5090609;28;20956;-43
2022/08/19 11:00:57;;;;;;;21.23;18.40;;;25.90;99.90;;;;;;5090896;28;20425;-45
2022/08/19 11:03:25;;;;;;;16.50;14.90;;;25.90;99.90;;;;;;5091000;28;20592;-46
2022/08/19 11:06:08;;;;;;;16.80;15.40;;;25.90;99.90;;;;;;5091110;28;20599;-49
2022/08/19 11:08:37;;;;;;;18.17;16.50;;;25.90;99.90;;;;;;5090502;28;20414;-44
2022/08/19 11:11:03;;;;;;;17.43;15.73;;;25.80;99.90;;;;;;5091228;28;20414;-44
2022/08/19 11:13:31;;;;;;;14.20;13.00;;;25.80;99.90;;;;;;5090626;28;20417;-48
2022/08/19 11:16:19;;;;;;;15.37;13.97;;;25.90;99.90;;;;;;5091175;28;20434;-48
2022/08/19 11:18:48;;;;;;;16.93;15.53;;;26.00;99.90;;;;;;5089954;28;20418;-48
2022/08/19 11:21:22;;;;;;;19.43;17.53;;;26.10;99.90;;;;;;5089175;28;20430;-49
2022/08/19 11:23:50;;;;;;;18.50;16.63;;;26.30;99.90;;;;;;5090335;28;20465;-44
2022/08/19 11:26:16;;;;;;;16.57;15.10;;;26.30;99.90;;;;;;5090812;28;20505;-45
2022/08/19 11:28:42;;;;;;;17.93;16.10;;;26.40;99.90;;;;;;5090113;28;20426;-48
2022/08/19 11:31:17;;;;;;;20.20;18.40;;;26.50;99.90;;;;;;5090563;28;20974;-46
2022/08/19 11:33:44;;;;;;;17.93;16.33;;;26.50;99.90;;;;;;5090517;28;20528;-43
2022/08/19 11:36:10;;;;;;;20.63;18.80;;;26.60;99.90;;;;;;5090404;28;20582;-44
2022/08/19 11:38:36;;;;;;;20.13;18.27;;;26.70;99.90;;;;;;5089501;28;20434;-43
2022/08/19 11:41:07;;;;;;;18.60;16.90;;;26.90;99.90;;;;;;5090508;28;20501;-47
2022/08/19 11:43:33;;;;;;;19.43;17.53;;;26.90;99.90;;;;;;5090476;28;20465;-46
2022/08/19 11:45:59;;;;;;;20.53;18.73;;;26.90;99.90;;;;;;5090319;28;20445;-44
2022/08/19 11:48:25;;;;;;;16.80;15.40;;;26.60;99.00;;;;;;5089607;28;20513;-46
2022/08/19 11:50:55;;;;;;;16.53;15.07;;;26.50;99.90;;;;;;5089936;28;20419;-44
2022/08/19 11:53:21;;;;;;;16.73;15.33;;;26.50;99.90;;;;;;5089046;28;21139;-44
2022/08/19 11:55:47;;;;;;;18.60;16.90;;;26.50;99.90;;;;;;5089988;28;20797;-46
2022/08/19 11:58:15;;;;;;;18.63;17.00;;;26.40;99.70;;;;;;5089435;28;20426;-43
2022/08/19 12:00:41;;;;;;;16.17;14.73;;;26.40;99.30;;;;;;5090340;28;20559;-45
2022/08/19 12:03:07;;;;;;;14.97;13.70;;;26.40;99.50;;;;;;5089655;28;20465;-44
2022/08/19 12:05:36;;;;;;;16.00;14.60;;;26.30;99.20;;;;;;5089256;28;20466;-44
2022/08/19 12:08:01;;;;;;;16.57;14.97;;;26.30;99.40;;;;;;5089511;28;20425;-43
2022/08/19 12:10:27;;;;;;;15.33;14.03;;;26.20;98.90;;;;;;5089863;28;20431;-49
2022/08/19 12:12:53;;;;;;;15.57;14.20;;;26.20;99.20;;;;;;5089853;28;20192;-46
2022/08/19 12:15:18;;;;;;;18.97;16.30;;;26.30;99.00;;;;;;5089590;28;20199;-49
2022/08/19 12:17:44;;;;;;;15.43;13.97;;;26.30;98.90;;;;;;5089025;28;20195;-46
2022/08/19 12:20:13;;;;;;;14.40;13.27;;;26.40;99.50;;;;;;5087616;28;20203;-44
2022/08/19 12:22:41;;;;;;;12.80;11.80;;;26.60;99.00;;;;;;5089355;28;20722;-43
2022/08/19 12:25:08;;;;;;;13.13;12.00;;;26.70;99.00;;;;;;5089230;28;20466;-46
2022/08/19 12:27:35;;;;;;;13.57;12.40;;;26.80;98.90;;;;;;5088794;28;20426;-45
2022/08/19 12:30:02;;;;;;;12.93;11.80;;;26.90;98.20;;;;;;5089344;28;20438;-48
2022/08/19 12:32:28;;;;;;;12.60;11.40;;;27.00;98.40;;;;;;5051405;28;20980;-46
2022/08/19 12:34:54;;;;;;;14.17;12.90;;;27.10;98.40;;;;;;5088079;28;20430;-45
2022/08/19 12:37:20;;;;;;;13.23;11.97;;;27.10;98.00;;;;;;5088680;28;20188;-44
2022/08/19 12:39:46;;;;;;;12.73;11.73;;;27.10;97.70;;;;;;5089285;28;20189;-47
2022/08/19 12:42:13;;;;;;;12.53;11.33;;;27.20;97.80;;;;;;5089179;28;20458;-46
2022/08/19 12:44:41;;;;;;;10.93;10.03;;;27.30;96.60;;;;;;5089142;28;20458;-44
2022/08/19 12:47:09;;;;;;;9.47;8.87;;;27.30;96.70;;;;;;5088150;28;20419;-44
2022/08/19 12:49:36;;;;;;;10.07;9.17;;;27.40;96.30;;;;;;5089065;28;20426;-47
2022/08/19 12:52:07;;;;;;;11.30;10.40;;;27.60;96.60;;;;;;5087805;28;20429;-46
2022/08/19 12:54:35;;;;;;;11.10;10.20;;;27.60;95.60;;;;;;5071546;28;20723;-43
2022/08/19 12:57:08;;;;;;;10.90;10.00;;;27.70;96.10;;;;;;5088193;28;20458;-48
2022/08/19 12:59:37;;;;;;;12.07;10.90;;;27.70;95.90;;;;;;5088775;28;20426;-49